createdAt,value
2023-05-08T00:00:11.412Z,14.50
2023-05-08T00:02:41.543Z,13.73
2023-05-08T00:05:09.066Z,11.52
2023-05-08T00:07:39.121Z,13.40
2023-05-08T00:10:08.166Z,17.40
2023-05-08T00:12:35.009Z,11.40
2023-05-08T00:15:02.820Z,13.52
2023-05-08T00:17:29.703Z,14.30
2023-05-08T00:19:56.783Z,12.50
2023-05-08T00:22:23.656Z,12.25
2023-05-08T00:24:50.591Z,11.93
2023-05-08T00:27:17.484Z,13.18
2023-05-08T00:29:44.452Z,11.10
2023-05-08T00:32:11.451Z,11.40
2023-05-08T00:34:38.347Z,13.25
2023-05-08T00:37:05.260Z,14.73
2023-05-08T00:39:32.123Z,10.43
2023-05-08T00:41:58.988Z,12.98
2023-05-08T00:44:26.014Z,10.85
2023-05-08T00:46:52.955Z,13.27
2023-05-08T00:49:20.332Z,10.93
2023-05-08T00:51:51.335Z,9.80
2023-05-08T00:54:19.332Z,10.80
2023-05-08T00:56:47.051Z,11.57
2023-05-08T00:59:16.044Z,11.68
2023-05-08T01:01:43.875Z,9.95
2023-05-08T01:04:11.087Z,9.40
2023-05-08T01:06:38.069Z,11.10
2023-05-08T01:09:05.600Z,11.00
2023-05-08T01:11:49.846Z,10.45
2023-05-08T01:14:40.046Z,12.98
2023-05-08T01:17:19.120Z,10.80
2023-05-08T01:19:55.634Z,9.15
2023-05-08T01:22:59.877Z,8.60
2023-05-08T01:25:32.424Z,11.63
2023-05-08T01:28:12.330Z,11.98
2023-05-08T01:31:04.984Z,10.70
2023-05-08T01:33:55.545Z,10.48
2023-05-08T01:36:33.816Z,13.88
2023-05-08T01:39:20.375Z,10.90
2023-05-08T01:41:57.326Z,11.60
2023-05-08T01:44:34.760Z,11.80
2023-05-08T01:47:07.237Z,12.13
2023-05-08T01:49:38.201Z,12.90
2023-05-08T01:52:15.292Z,14.15
2023-05-08T01:54:55.820Z,11.45
2023-05-08T01:57:26.772Z,13.05
2023-05-08T01:59:56.213Z,12.20
2023-05-08T02:02:24.354Z,12.73
2023-05-08T02:04:55.625Z,11.82
2023-05-08T02:07:24.070Z,12.63
2023-05-08T02:09:53.659Z,11.50
2023-05-08T02:12:22.399Z,12.82
2023-05-08T02:14:53.080Z,10.98
2023-05-08T02:17:21.968Z,14.07
2023-05-08T02:19:51.046Z,16.10
2023-05-08T02:22:19.570Z,15.40
2023-05-08T02:24:47.258Z,13.75
2023-05-08T02:27:16.133Z,13.30
2023-05-08T02:29:43.250Z,13.15
2023-05-08T02:32:10.785Z,14.00
2023-05-08T02:34:42.886Z,15.63
2023-05-08T02:37:18.528Z,13.57
2023-05-08T02:39:48.217Z,15.95
2023-05-08T02:42:16.117Z,17.05
2023-05-08T02:44:43.436Z,15.73
2023-05-08T02:47:23.950Z,14.32
2023-05-08T02:50:29.567Z,16.95
2023-05-08T02:53:05.119Z,15.45
2023-05-08T02:55:50.779Z,15.18
2023-05-08T02:58:24.176Z,15.43
2023-05-08T03:01:06.970Z,14.18
2023-05-08T03:03:41.006Z,15.23
2023-05-08T03:06:13.862Z,15.75
2023-05-08T03:08:43.218Z,16.55
2023-05-08T03:11:16.286Z,18.40
2023-05-08T03:13:46.878Z,16.63
2023-05-08T03:16:25.128Z,17.38
2023-05-08T03:19:07.492Z,17.58
2023-05-08T03:21:37.405Z,16.67
2023-05-08T03:24:07.331Z,19.05
2023-05-08T03:26:35.390Z,16.35
2023-05-08T03:29:04.012Z,16.65
2023-05-08T03:31:35.429Z,16.35
2023-05-08T03:34:04.505Z,17.40
2023-05-08T03:36:32.174Z,17.50
2023-05-08T03:39:00.446Z,20.50
2023-05-08T03:41:27.973Z,17.98
2023-05-08T03:43:56.249Z,19.52
2023-05-08T03:46:24.258Z,20.88
2023-05-08T03:48:53.376Z,16.73
2023-05-08T03:51:21.909Z,23.30
2023-05-08T03:53:49.999Z,18.88
2023-05-08T03:56:18.186Z,16.55
2023-05-08T03:58:56.728Z,17.17
2023-05-08T04:01:31.373Z,15.18
2023-05-08T04:04:08.255Z,18.27
2023-05-08T04:06:51.284Z,16.98
2023-05-08T04:09:56.838Z,15.68
2023-05-08T04:12:43.595Z,15.27
2023-05-08T04:16:26.562Z,15.77
2023-05-08T04:19:19.264Z,16.55
2023-05-08T04:26:16.383Z,16.35
2023-05-08T04:28:46.927Z,16.23
2023-05-08T04:31:18.261Z,16.92
2023-05-08T04:33:47.077Z,20.40
2023-05-08T04:36:14.846Z,16.10
2023-05-08T04:38:44.914Z,19.42
2023-05-08T04:41:13.263Z,16.70
2023-05-08T04:43:41.009Z,16.23
2023-05-08T04:46:09.704Z,15.43
2023-05-08T04:48:36.994Z,16.45
2023-05-08T04:51:04.240Z,17.40
2023-05-08T04:53:31.464Z,18.13
2023-05-08T04:56:07.936Z,16.50
2023-05-08T04:59:34.832Z,18.65
2023-05-08T05:02:02.760Z,20.25
2023-05-08T05:04:31.094Z,16.33
2023-05-08T05:07:24.584Z,20.17
2023-05-08T05:09:51.739Z,17.77
2023-05-08T05:12:19.369Z,18.55
2023-05-08T05:14:46.593Z,17.00
2023-05-08T05:17:14.252Z,22.60
2023-05-08T05:19:41.773Z,19.02
2023-05-08T05:22:09.653Z,18.88
2023-05-08T05:24:36.918Z,18.95
2023-05-08T05:27:04.680Z,16.52
2023-05-08T05:29:32.279Z,18.27
2023-05-08T05:32:00.028Z,19.17
2023-05-08T05:37:32.877Z,17.98
2023-05-08T05:40:00.416Z,23.90
2023-05-08T05:42:33.986Z,18.58
2023-05-08T05:45:05.046Z,18.98
2023-05-08T05:48:04.201Z,23.20
2023-05-08T05:50:33.384Z,19.73
2023-05-08T05:53:01.007Z,19.15
2023-05-08T05:55:28.304Z,18.85
2023-05-08T05:57:55.908Z,17.05
2023-05-08T06:00:23.109Z,19.42
2023-05-08T06:05:23.245Z,16.70
2023-05-08T06:07:51.426Z,18.70
2023-05-08T06:10:18.694Z,17.65
2023-05-08T06:12:46.117Z,17.52
2023-05-08T06:15:15.377Z,21.80
2023-05-08T06:18:10.599Z,19.73
2023-05-08T06:20:39.241Z,22.55
2023-05-08T06:23:06.931Z,20.17
2023-05-08T06:25:34.129Z,22.60
2023-05-08T06:28:01.410Z,20.92
2023-05-08T06:30:28.590Z,19.00
2023-05-08T06:32:56.925Z,18.70
2023-05-08T06:35:24.602Z,18.27
2023-05-08T06:37:51.744Z,19.80
2023-05-08T06:40:19.103Z,20.10
2023-05-08T06:42:46.370Z,18.63
2023-05-08T06:45:13.724Z,20.17
2023-05-08T06:47:41.316Z,19.42
2023-05-08T06:50:08.945Z,19.70
2023-05-08T06:52:36.066Z,21.77
2023-05-08T06:55:09.374Z,21.27
2023-05-08T06:58:34.050Z,18.77
2023-05-08T07:01:01.889Z,21.75
2023-05-08T07:03:29.134Z,21.77
2023-05-08T07:05:56.457Z,20.80
2023-05-08T07:08:23.547Z,18.55
2023-05-08T07:10:50.867Z,20.05
2023-05-08T07:13:21.849Z,22.92
2023-05-08T07:15:49.222Z,20.60
2023-05-08T07:18:16.317Z,20.17
2023-05-08T07:21:05.337Z,21.15
2023-05-08T07:23:32.476Z,23.27
2023-05-08T07:25:59.922Z,24.02
2023-05-08T07:28:27.323Z,24.13
2023-05-08T07:30:54.437Z,21.88
2023-05-08T07:33:43.477Z,23.45
2023-05-08T07:36:11.261Z,19.08
2023-05-08T07:38:38.930Z,20.75
2023-05-08T07:41:07.069Z,23.55
2023-05-08T07:43:34.262Z,20.50
2023-05-08T07:46:01.410Z,22.58
2023-05-08T07:48:57.391Z,25.35
2023-05-08T07:51:24.506Z,23.52
2023-05-08T07:54:43.963Z,19.92
2023-05-08T07:57:11.784Z,22.38
2023-05-08T07:59:39.234Z,24.08
2023-05-08T08:02:07.427Z,25.02
2023-05-08T08:04:34.689Z,21.50
2023-05-08T08:07:01.896Z,25.25
2023-05-08T08:09:29.008Z,22.35
2023-05-08T08:11:56.230Z,24.45
2023-05-08T08:14:23.546Z,24.45
2023-05-08T08:16:50.718Z,22.70
2023-05-08T08:19:18.016Z,24.95
2023-05-08T08:21:46.272Z,21.65
2023-05-08T08:24:13.649Z,23.23
2023-05-08T08:26:40.771Z,26.02
2023-05-08T08:29:08.071Z,25.35
2023-05-08T08:31:35.266Z,23.02
2023-05-08T08:34:02.534Z,25.08
2023-05-08T08:36:29.686Z,24.40
2023-05-08T08:38:56.876Z,26.45
2023-05-08T08:41:24.343Z,28.30
2023-05-08T08:43:51.389Z,26.10
2023-05-08T08:46:23.937Z,26.17
2023-05-08T08:48:53.395Z,26.08
2023-05-08T08:51:31.440Z,24.42
2023-05-08T08:54:10.219Z,27.92
2023-05-08T08:56:40.940Z,26.33
2023-05-08T08:59:09.180Z,24.60
2023-05-08T09:01:40.705Z,25.58
2023-05-08T09:04:08.852Z,26.77
2023-05-08T09:06:37.700Z,30.92
2023-05-08T09:09:05.661Z,27.13
2023-05-08T09:11:33.554Z,24.10
2023-05-08T09:14:00.861Z,28.25
2023-05-08T09:16:28.877Z,26.15
2023-05-08T09:18:55.961Z,26.52
2023-05-08T09:21:23.468Z,26.17
2023-05-08T09:23:57.696Z,30.05
2023-05-08T09:26:36.605Z,28.55
2023-05-08T09:29:14.377Z,26.05
2023-05-08T09:31:43.815Z,27.58
2023-05-08T09:34:23.665Z,27.33
2023-05-08T09:36:50.850Z,27.17
2023-05-08T09:39:24.590Z,25.50
2023-05-08T09:41:59.686Z,24.98
2023-05-08T09:44:26.856Z,30.85
2023-05-08T09:47:14.538Z,28.92
2023-05-08T09:50:01.776Z,29.85
2023-05-08T09:52:33.098Z,35.85
2023-05-08T09:55:02.570Z,32.33
2023-05-08T09:57:39.830Z,35.38
2023-05-08T10:00:11.625Z,29.60
2023-05-08T10:02:42.011Z,33.60
2023-05-08T10:05:35.665Z,31.80
2023-05-08T10:08:19.130Z,33.30
2023-05-08T10:10:46.616Z,35.05
2023-05-08T10:13:14.157Z,35.63
2023-05-08T10:15:45.766Z,34.25
2023-05-08T10:20:45.285Z,34.90
2023-05-08T10:23:22.881Z,40.95
2023-05-08T10:25:56.073Z,40.53
2023-05-08T10:28:37.507Z,34.90
2023-05-08T10:31:07.208Z,36.90
2023-05-08T10:33:35.858Z,35.17
2023-05-08T10:36:03.137Z,36.78
2023-05-08T10:38:31.774Z,36.15
2023-05-08T10:41:02.281Z,35.88
2023-05-08T10:43:31.448Z,35.75
2023-05-08T10:46:02.387Z,38.63
2023-05-08T10:48:44.617Z,35.88
2023-05-08T10:51:27.870Z,42.60
2023-05-08T10:54:06.832Z,37.17
2023-05-08T10:56:37.660Z,35.53
2023-05-08T10:59:06.329Z,36.78
2023-05-08T11:01:33.498Z,31.10
2023-05-08T11:04:01.090Z,28.88
2023-05-08T11:06:46.050Z,30.17
2023-05-08T11:09:27.518Z,30.10
2023-05-08T11:12:16.763Z,31.05
2023-05-08T11:14:53.477Z,32.05
2023-05-08T11:17:25.198Z,30.83
2023-05-08T11:20:00.824Z,28.42
2023-05-08T11:22:33.239Z,25.58
2023-05-08T11:25:03.589Z,33.83
2023-05-08T11:27:49.127Z,27.27
2023-05-08T11:30:35.130Z,24.77
2023-05-08T11:33:05.654Z,30.83
2023-05-08T11:35:56.380Z,31.03
2023-05-08T11:38:36.233Z,27.98
2023-05-08T11:41:22.569Z,27.83
2023-05-08T11:44:09.694Z,28.23
2023-05-08T11:47:03.729Z,27.67
2023-05-08T11:49:31.109Z,27.35
2023-05-08T11:51:59.520Z,29.63
2023-05-08T11:54:30.545Z,27.20
2023-05-08T11:56:59.545Z,26.60
2023-05-08T11:59:27.424Z,24.77
2023-05-08T12:04:24.895Z,23.17
2023-05-08T12:06:57.663Z,23.40
2023-05-08T12:09:24.929Z,24.35
2023-05-08T12:11:58.097Z,24.17
2023-05-08T12:14:25.358Z,26.77
2023-05-08T12:16:52.646Z,27.17
2023-05-08T12:19:19.866Z,25.27
2023-05-08T12:21:51.502Z,29.35
2023-05-08T12:26:56.526Z,23.65
2023-05-08T12:29:24.196Z,26.15
2023-05-08T12:31:52.755Z,26.67
2023-05-08T12:34:20.862Z,23.17
2023-05-08T12:36:48.042Z,23.75
2023-05-08T12:39:17.147Z,24.50
2023-05-08T12:41:53.408Z,24.30
2023-05-08T12:44:25.564Z,22.75
2023-05-08T12:46:54.592Z,24.35
2023-05-08T12:49:30.176Z,21.27
2023-05-08T12:52:09.129Z,21.98
2023-05-08T12:54:41.468Z,26.45
2023-05-08T12:57:12.515Z,23.52
2023-05-08T12:59:41.082Z,23.08
2023-05-08T13:02:35.704Z,19.35
2023-05-08T13:05:07.293Z,22.05
2023-05-08T13:07:35.968Z,18.20
2023-05-08T13:10:04.912Z,25.83
2023-05-08T13:12:32.914Z,21.77
2023-05-08T13:15:01.072Z,21.63
2023-05-08T13:17:28.502Z,22.35
2023-05-08T13:20:00.343Z,19.35
2023-05-08T13:22:27.590Z,22.05
2023-05-08T13:25:07.902Z,22.23
2023-05-08T13:27:35.234Z,23.27
2023-05-08T13:30:03.136Z,21.52
2023-05-08T13:36:56.129Z,22.02
2023-05-08T13:39:23.259Z,20.55
2023-05-08T13:41:50.404Z,21.23
2023-05-08T13:44:36.014Z,23.48
2023-05-08T13:47:03.363Z,20.73
2023-05-08T13:53:07.081Z,24.10
2023-05-08T13:55:34.330Z,22.48
2023-05-08T13:58:18.608Z,23.80
2023-05-08T14:01:26.265Z,21.05
2023-05-08T14:03:55.364Z,24.17
2023-05-08T14:06:22.922Z,20.02
2023-05-08T14:09:05.534Z,23.40
2023-05-08T14:11:32.920Z,19.98
2023-05-08T14:14:00.014Z,24.80
2023-05-08T14:16:28.386Z,28.30
2023-05-08T14:19:01.783Z,20.30
2023-05-08T14:21:29.094Z,22.50
2023-05-08T14:24:26.193Z,22.00
2023-05-08T14:26:53.407Z,21.50
2023-05-08T14:29:20.946Z,20.33
2023-05-08T14:31:48.161Z,21.75
2023-05-08T14:34:15.504Z,21.13
2023-05-08T14:36:42.648Z,19.92
2023-05-08T14:39:10.053Z,19.65
2023-05-08T14:41:38.443Z,19.90
2023-05-08T14:44:05.783Z,17.95
2023-05-08T14:46:33.338Z,18.73
2023-05-08T14:49:00.540Z,21.88
2023-05-08T14:51:28.318Z,19.20
2023-05-08T14:53:55.562Z,19.13
2023-05-08T14:56:24.828Z,18.98
2023-05-08T14:58:52.427Z,22.65
2023-05-08T15:01:45.204Z,23.17
2023-05-08T15:04:12.751Z,21.08
2023-05-08T15:06:43.219Z,18.45
2023-05-08T15:09:10.485Z,23.73
2023-05-08T15:11:37.993Z,21.55
2023-05-08T15:14:06.192Z,24.15
2023-05-08T15:16:33.928Z,21.70
2023-05-08T15:19:01.160Z,20.00
2023-05-08T15:22:35.107Z,19.90
2023-05-08T15:25:02.852Z,22.40
2023-05-08T15:27:30.421Z,16.63
2023-05-08T15:29:58.273Z,16.92
2023-05-08T15:32:25.862Z,19.67
2023-05-08T15:34:53.169Z,18.90
2023-05-08T15:37:20.401Z,20.45
2023-05-08T15:39:47.567Z,20.17
2023-05-08T15:42:14.676Z,21.13
2023-05-08T15:44:54.434Z,23.08
2023-05-08T15:47:23.520Z,20.75
2023-05-08T15:49:51.301Z,23.90
2023-05-08T15:52:19.914Z,20.40
2023-05-08T15:54:47.744Z,18.77
2023-05-08T15:57:15.241Z,25.15
2023-05-08T15:59:42.815Z,20.70
2023-05-08T16:02:10.392Z,19.13
2023-05-08T16:04:37.753Z,19.30
2023-05-08T16:07:05.022Z,20.60
2023-05-08T16:09:32.383Z,20.20
2023-05-08T16:11:59.539Z,21.60
2023-05-08T16:14:27.187Z,21.10
2023-05-08T16:16:54.320Z,22.27
2023-05-08T16:19:21.720Z,25.70
2023-05-08T16:21:48.866Z,21.85
2023-05-08T16:24:16.000Z,21.83
2023-05-08T16:26:43.197Z,23.27
2023-05-08T16:29:10.389Z,24.33
2023-05-08T16:31:37.640Z,21.23
2023-05-08T16:34:05.036Z,25.40
2023-05-08T16:36:32.283Z,19.70
2023-05-08T16:39:00.487Z,23.98
2023-05-08T16:41:27.922Z,22.40
2023-05-08T16:43:55.153Z,21.48
2023-05-08T16:46:30.160Z,22.13
2023-05-08T16:48:57.986Z,20.92
2023-05-08T16:51:25.208Z,22.45
2023-05-08T16:53:52.360Z,22.77
2023-05-08T16:56:20.947Z,22.45
2023-05-08T16:58:48.213Z,23.52
2023-05-08T17:01:15.592Z,20.67
2023-05-08T17:03:43.003Z,21.42
2023-05-08T17:06:10.985Z,23.60
2023-05-08T17:08:38.507Z,23.35
2023-05-08T17:11:06.033Z,22.77
2023-05-08T17:13:33.837Z,21.40
2023-05-08T17:16:03.005Z,22.73
2023-05-08T17:18:31.130Z,19.58
2023-05-08T17:20:58.913Z,18.88
2023-05-08T17:23:27.048Z,24.10
2023-05-08T17:26:01.425Z,23.55
2023-05-08T17:28:30.402Z,21.27
2023-05-08T17:30:58.438Z,21.95
2023-05-08T17:33:26.628Z,22.48
2023-05-08T17:35:54.713Z,23.02
2023-05-08T17:38:23.099Z,21.55
2023-05-08T17:40:51.570Z,25.20
2023-05-08T17:43:20.993Z,25.15
2023-05-08T17:45:49.046Z,26.02
2023-05-08T17:48:17.177Z,23.88
2023-05-08T17:50:47.193Z,19.90
2023-05-08T17:53:15.453Z,22.38
2023-05-08T17:55:44.625Z,23.40
2023-05-08T17:58:13.074Z,23.70
2023-05-08T18:00:41.196Z,22.17
2023-05-08T18:03:09.573Z,23.65
2023-05-08T18:05:38.802Z,23.65
2023-05-08T18:08:08.028Z,22.17
2023-05-08T18:10:37.088Z,21.33
2023-05-08T18:13:05.250Z,25.55
2023-05-08T18:15:33.946Z,21.95
2023-05-08T18:18:02.072Z,21.05
2023-05-08T18:20:30.120Z,20.77
2023-05-08T18:22:58.095Z,19.48
2023-05-08T18:25:26.116Z,20.17
2023-05-08T18:28:44.706Z,25.13
2023-05-08T18:31:14.152Z,21.00
2023-05-08T18:33:42.140Z,20.50
2023-05-08T18:36:10.312Z,18.30
2023-05-08T18:38:42.577Z,18.60
2023-05-08T18:41:10.722Z,17.13
2023-05-08T18:43:42.370Z,18.25
2023-05-08T18:48:42.314Z,18.25
2023-05-08T18:51:12.062Z,19.02
2023-05-08T18:53:52.990Z,17.38
2023-05-08T18:56:22.059Z,18.83
2023-05-08T18:58:50.654Z,19.58
2023-05-08T19:01:20.938Z,18.98
2023-05-08T19:03:49.438Z,19.98
2023-05-08T19:06:17.785Z,19.83
2023-05-08T19:08:46.632Z,20.52
2023-05-08T19:11:14.665Z,19.52
2023-05-08T19:16:27.795Z,19.92
2023-05-08T19:18:56.496Z,19.38
2023-05-08T19:21:24.584Z,17.65
2023-05-08T19:23:52.852Z,18.27
2023-05-08T19:26:36.215Z,17.45
2023-05-08T19:29:04.460Z,19.77
2023-05-08T19:31:32.766Z,25.35
2023-05-08T19:34:01.162Z,24.58
2023-05-08T19:36:37.882Z,20.92
2023-05-08T19:39:07.744Z,17.45
2023-05-08T19:41:36.220Z,21.10
2023-05-08T19:44:04.135Z,19.85
2023-05-08T19:46:32.441Z,21.58
2023-05-08T19:49:00.436Z,19.45
2023-05-08T19:51:28.394Z,16.65
2023-05-08T19:53:57.484Z,19.17
2023-05-08T19:56:25.832Z,20.98
2023-05-08T19:58:53.875Z,20.52
2023-05-08T20:01:22.066Z,20.98
2023-05-08T20:03:50.153Z,17.73
2023-05-08T20:06:18.271Z,21.58
2023-05-08T20:08:46.376Z,34.05
2023-05-08T20:11:55.884Z,20.88
2023-05-08T20:14:23.907Z,20.10
2023-05-08T20:16:51.931Z,20.60
2023-05-08T20:19:19.851Z,20.38
2023-05-08T20:21:48.233Z,18.58
2023-05-08T20:24:16.616Z,21.00
2023-05-08T20:26:44.142Z,16.50
2023-05-08T20:29:11.749Z,18.20
2023-05-08T20:31:41.162Z,19.48
2023-05-08T20:34:09.042Z,19.02
2023-05-08T20:36:36.290Z,17.48
2023-05-08T20:39:03.839Z,19.20
2023-05-08T20:41:31.144Z,18.13
2023-05-08T20:43:58.898Z,25.65
2023-05-08T20:46:26.122Z,20.38
2023-05-08T20:48:53.499Z,19.17
2023-05-08T20:51:21.813Z,22.17
2023-05-08T20:53:49.014Z,17.52
2023-05-08T20:56:18.946Z,18.23
2023-05-08T20:58:46.631Z,18.73
2023-05-08T21:01:13.936Z,16.77
2023-05-08T21:03:41.360Z,21.98
2023-05-08T21:06:08.725Z,18.83
2023-05-08T21:08:36.213Z,19.60
2023-05-08T21:11:03.868Z,20.35
2023-05-08T21:13:32.102Z,18.30
2023-05-08T21:15:59.553Z,16.15
2023-05-08T21:18:26.972Z,17.83
2023-05-08T21:20:54.170Z,19.55
2023-05-08T21:23:21.722Z,19.15
2023-05-08T21:25:49.779Z,17.23
2023-05-08T21:28:17.468Z,14.80
2023-05-08T21:30:46.097Z,14.82
2023-05-08T21:33:14.097Z,14.45
2023-05-08T21:35:42.290Z,16.52
2023-05-08T21:38:12.216Z,16.65
2023-05-08T21:40:39.620Z,14.73
2023-05-08T21:43:07.405Z,18.00
2023-05-08T21:45:34.780Z,13.38
2023-05-08T21:48:02.864Z,17.27
2023-05-08T21:50:30.485Z,16.38
2023-05-08T21:52:57.856Z,14.95
2023-05-08T21:55:25.466Z,17.17
2023-05-08T21:57:53.920Z,13.93
2023-05-08T22:00:21.543Z,13.73
2023-05-08T22:02:48.882Z,15.80
2023-05-08T22:05:16.424Z,12.27
2023-05-08T22:07:43.889Z,15.75
2023-05-08T22:10:11.784Z,16.77
2023-05-08T22:12:39.150Z,13.00
2023-05-08T22:15:14.803Z,12.48
2023-05-08T22:17:50.762Z,16.90
2023-05-08T22:20:19.423Z,13.73
2023-05-08T22:22:47.528Z,11.85
2023-05-08T22:25:16.082Z,16.90
2023-05-08T22:27:43.511Z,12.90
2023-05-08T22:30:11.082Z,14.05
2023-05-08T22:32:38.281Z,13.05
2023-05-08T22:35:06.707Z,10.48
2023-05-08T22:37:34.139Z,9.80
2023-05-08T22:40:01.253Z,9.65
2023-05-08T22:42:29.217Z,9.48
2023-05-08T22:44:57.273Z,13.20
2023-05-08T22:47:25.981Z,11.50
2023-05-08T22:49:54.049Z,8.75
2023-05-08T22:52:21.404Z,11.75
2023-05-08T22:54:48.665Z,10.27
2023-05-08T22:57:15.948Z,9.00
2023-05-08T22:59:43.273Z,10.25
2023-05-08T23:02:10.657Z,11.60
2023-05-08T23:04:37.959Z,8.98
2023-05-08T23:07:05.103Z,8.35
2023-05-08T23:09:32.764Z,9.30
2023-05-08T23:11:59.909Z,10.52
2023-05-08T23:14:27.012Z,7.93
2023-05-08T23:16:54.197Z,10.65
2023-05-08T23:19:21.325Z,10.20
2023-05-08T23:21:48.685Z,10.18
2023-05-08T23:24:15.888Z,12.13
2023-05-08T23:26:43.435Z,9.60
2023-05-08T23:29:10.527Z,8.98
2023-05-08T23:31:37.985Z,8.95
2023-05-08T23:34:05.099Z,10.82
2023-05-08T23:36:32.477Z,9.77
2023-05-08T23:38:59.632Z,8.75
2023-05-08T23:41:27.309Z,9.30
2023-05-08T23:43:54.883Z,7.07
2023-05-08T23:46:22.332Z,7.63
2023-05-08T23:48:49.472Z,8.07
2023-05-08T23:51:16.744Z,8.88
2023-05-08T23:53:44.124Z,9.40
2023-05-08T23:56:11.443Z,11.05
2023-05-08T23:58:38.749Z,9.77
